createdAt,value
2022-12-20T00:00:02.932Z,88.43
2022-12-20T00:00:13.723Z,88.48
2022-12-20T00:00:24.795Z,88.43
2022-12-20T00:00:35.789Z,88.48
2022-12-20T00:00:46.566Z,88.43
2022-12-20T00:00:57.631Z,88.48
2022-12-20T00:01:08.627Z,88.43
2022-12-20T00:01:19.484Z,88.54
2022-12-20T00:01:30.066Z,88.54
2022-12-20T00:01:41.181Z,88.58
2022-12-20T00:01:52.100Z,88.54
2022-12-20T00:02:02.888Z,88.58
2022-12-20T00:02:13.444Z,88.54
2022-12-20T00:02:24.415Z,88.54
2022-12-20T00:02:35.258Z,88.58
2022-12-20T00:02:45.895Z,88.54
2022-12-20T00:02:56.764Z,88.58
2022-12-20T00:03:07.369Z,88.58
2022-12-20T00:03:18.447Z,88.58
2022-12-20T00:03:29.287Z,88.58
2022-12-20T00:03:40.352Z,88.58
2022-12-20T00:03:51.357Z,88.54
2022-12-20T00:04:02.145Z,88.58
2022-12-20T00:04:13.236Z,88.54
2022-12-20T00:04:24.229Z,88.58
2022-12-20T00:04:35.022Z,88.54
2022-12-20T00:04:46.078Z,88.54
2022-12-20T00:04:57.070Z,88.58
2022-12-20T00:05:07.853Z,88.58
2022-12-20T00:05:18.932Z,88.58
2022-12-20T00:05:29.921Z,88.58
2022-12-20T00:05:40.731Z,88.54
2022-12-20T00:05:51.782Z,88.58
2022-12-20T00:06:02.782Z,88.58
2022-12-20T00:06:13.577Z,88.58
2022-12-20T00:06:24.645Z,88.58
2022-12-20T00:06:35.656Z,88.48
2022-12-20T00:06:46.420Z,88.54
2022-12-20T00:06:57.500Z,88.58
2022-12-20T00:07:08.492Z,88.48
2022-12-20T00:07:19.252Z,88.48
2022-12-20T00:07:30.352Z,88.43
2022-12-20T00:07:41.299Z,88.48
2022-12-20T00:07:52.086Z,88.43
2022-12-20T00:08:03.204Z,88.48
2022-12-20T00:08:14.215Z,88.48
2022-12-20T00:08:24.977Z,88.48
2022-12-20T00:08:36.137Z,88.48
2022-12-20T00:08:47.097Z,88.48
2022-12-20T00:08:57.918Z,88.48
2022-12-20T00:09:08.976Z,88.48
2022-12-20T00:09:19.967Z,88.48
2022-12-20T00:09:30.780Z,88.43
2022-12-20T00:09:41.631Z,88.43
2022-12-20T00:09:52.612Z,88.48
2022-12-20T00:10:03.424Z,88.48
2022-12-20T00:10:14.477Z,88.43
2022-12-20T00:10:25.469Z,88.48
2022-12-20T00:10:36.249Z,88.43
2022-12-20T00:10:47.343Z,88.58
2022-12-20T00:10:58.323Z,88.54
2022-12-20T00:11:09.103Z,88.54
2022-12-20T00:11:20.176Z,88.58
2022-12-20T00:11:31.176Z,88.54
2022-12-20T00:11:41.960Z,88.58
2022-12-20T00:11:53.114Z,88.58
2022-12-20T00:12:04.050Z,88.64
2022-12-20T00:12:14.833Z,88.68
2022-12-20T00:12:25.903Z,88.64
2022-12-20T00:12:36.912Z,88.68
2022-12-20T00:12:47.737Z,88.64
2022-12-20T00:12:58.753Z,88.64
2022-12-20T00:13:09.787Z,88.68
2022-12-20T00:13:20.677Z,88.64
2022-12-20T00:13:31.746Z,88.68
2022-12-20T00:13:42.753Z,88.64
2022-12-20T00:13:53.518Z,88.64
2022-12-20T00:14:04.630Z,88.68
2022-12-20T00:14:15.587Z,88.64
2022-12-20T00:14:26.397Z,88.64
2022-12-20T00:14:37.456Z,88.64
2022-12-20T00:14:48.522Z,88.68
2022-12-20T00:14:59.280Z,88.64
2022-12-20T00:15:10.347Z,88.64
2022-12-20T00:15:21.375Z,88.64
2022-12-20T00:15:32.139Z,88.68
2022-12-20T00:15:43.216Z,88.68
2022-12-20T00:15:54.196Z,88.64
2022-12-20T00:16:04.981Z,88.64
2022-12-20T00:16:16.066Z,88.64
2022-12-20T00:16:27.073Z,88.68
2022-12-20T00:16:37.839Z,88.64
2022-12-20T00:16:48.925Z,88.54
2022-12-20T00:16:59.918Z,88.58
2022-12-20T00:17:10.689Z,88.54
2022-12-20T00:17:21.794Z,88.54
2022-12-20T00:17:32.795Z,88.54
2022-12-20T00:17:43.624Z,88.58
2022-12-20T00:17:54.239Z,88.54
2022-12-20T00:18:04.853Z,88.54
2022-12-20T00:18:15.756Z,88.54
2022-12-20T00:18:26.305Z,88.54
2022-12-20T00:18:37.307Z,88.54
2022-12-20T00:18:48.078Z,88.54
2022-12-20T00:18:59.202Z,88.58
2022-12-20T00:19:10.202Z,88.54
2022-12-20T00:19:20.971Z,88.58
2022-12-20T00:19:32.045Z,88.58
2022-12-20T00:19:43.034Z,88.43
2022-12-20T00:19:53.826Z,88.43
2022-12-20T00:20:04.938Z,88.43
2022-12-20T00:20:15.898Z,88.43
2022-12-20T00:20:26.675Z,88.43
2022-12-20T00:20:37.738Z,88.48
2022-12-20T00:20:48.747Z,88.43
2022-12-20T00:20:59.528Z,88.48
2022-12-20T00:21:10.594Z,88.43
2022-12-20T00:21:21.583Z,88.48
2022-12-20T00:21:32.403Z,88.37
2022-12-20T00:21:43.467Z,88.48
2022-12-20T00:21:54.485Z,88.43
2022-12-20T00:22:05.267Z,88.48
2022-12-20T00:22:16.310Z,88.37
2022-12-20T00:22:27.313Z,88.33
2022-12-20T00:22:38.097Z,88.33
2022-12-20T00:22:49.195Z,88.37
2022-12-20T00:23:00.186Z,88.33
2022-12-20T00:23:10.987Z,88.33
2022-12-20T00:23:22.079Z,88.37
2022-12-20T00:23:33.094Z,88.33
2022-12-20T00:23:43.893Z,88.37
2022-12-20T00:23:54.436Z,88.33
2022-12-20T00:24:05.420Z,88.33
2022-12-20T00:24:19.437Z,88.33
2022-12-20T00:24:28.298Z,88.37
2022-12-20T00:24:38.202Z,88.27
2022-12-20T00:24:48.982Z,88.27
2022-12-20T00:25:00.102Z,88.27
2022-12-20T00:25:11.052Z,88.23
2022-12-20T00:25:21.857Z,88.23
2022-12-20T00:25:32.958Z,88.23
2022-12-20T00:25:43.936Z,88.27
2022-12-20T00:25:54.725Z,88.23
2022-12-20T00:26:05.795Z,88.12
2022-12-20T00:26:16.810Z,88.12
2022-12-20T00:26:27.596Z,88.12
2022-12-20T00:26:38.646Z,88.17
2022-12-20T00:26:49.631Z,88.12
2022-12-20T00:27:00.430Z,88.02
2022-12-20T00:27:11.496Z,88.02
2022-12-20T00:27:22.492Z,88.06
2022-12-20T00:27:33.266Z,88.02
2022-12-20T00:27:44.381Z,88.06
2022-12-20T00:27:55.344Z,88.06
2022-12-20T00:28:06.151Z,88.02
2022-12-20T00:28:17.217Z,88.06
2022-12-20T00:28:28.231Z,88.06
2022-12-20T00:28:39.024Z,88.06
2022-12-20T00:28:50.103Z,88.06
2022-12-20T00:29:01.134Z,88.02
2022-12-20T00:29:11.881Z,88.02
2022-12-20T00:29:22.970Z,88.06
2022-12-20T00:29:33.949Z,88.02
2022-12-20T00:29:44.743Z,88.02
2022-12-20T00:29:55.805Z,88.02
2022-12-20T00:30:06.793Z,88.06
2022-12-20T00:30:17.607Z,88.12
2022-12-20T00:30:28.653Z,88.17
2022-12-20T00:30:39.658Z,88.12
2022-12-20T00:30:50.454Z,88.12
2022-12-20T00:31:01.602Z,88.12
2022-12-20T00:31:12.636Z,88.27
2022-12-20T00:31:23.473Z,88.23
2022-12-20T00:31:34.035Z,88.27
2022-12-20T00:31:45.043Z,88.27
2022-12-20T00:31:55.876Z,88.27
2022-12-20T00:32:06.464Z,88.27
2022-12-20T00:32:16.966Z,88.37
2022-12-20T00:32:27.739Z,88.37
2022-12-20T00:32:38.816Z,88.37
2022-12-20T00:32:49.794Z,88.33
2022-12-20T00:33:00.621Z,88.37
2022-12-20T00:33:11.156Z,88.33
2022-12-20T00:33:22.131Z,88.37
2022-12-20T00:33:32.931Z,88.33
2022-12-20T00:33:43.457Z,88.23
2022-12-20T00:33:54.449Z,88.27
2022-12-20T00:34:05.237Z,88.23
2022-12-20T00:34:16.336Z,88.27
2022-12-20T00:34:27.334Z,88.23
2022-12-20T00:34:38.117Z,88.27
2022-12-20T00:34:49.209Z,88.27
2022-12-20T00:35:00.170Z,88.27
2022-12-20T00:35:10.974Z,88.23
2022-12-20T00:35:22.060Z,88.27
2022-12-20T00:35:33.056Z,88.27
2022-12-20T00:35:43.831Z,88.23
2022-12-20T00:35:54.897Z,88.23
2022-12-20T00:36:05.896Z,88.27
2022-12-20T00:36:16.658Z,88.23
2022-12-20T00:36:27.736Z,88.27
2022-12-20T00:36:38.726Z,88.27
2022-12-20T00:36:49.523Z,88.37
2022-12-20T00:37:00.580Z,88.27
2022-12-20T00:37:11.595Z,88.37
2022-12-20T00:37:22.361Z,88.37
2022-12-20T00:37:33.481Z,88.37
2022-12-20T00:37:44.447Z,88.33
2022-12-20T00:37:55.244Z,88.33
2022-12-20T00:38:06.318Z,88.33
2022-12-20T00:38:17.300Z,88.37
2022-12-20T00:38:28.093Z,88.48
2022-12-20T00:38:39.187Z,88.48
2022-12-20T00:38:50.202Z,88.48
2022-12-20T00:39:00.992Z,88.48
2022-12-20T00:39:12.090Z,88.48
2022-12-20T00:39:23.051Z,88.48
2022-12-20T00:39:33.846Z,88.43
2022-12-20T00:39:44.919Z,88.43
2022-12-20T00:39:55.911Z,88.48
2022-12-20T00:40:06.717Z,88.48
2022-12-20T00:40:17.804Z,88.48
2022-12-20T00:40:28.787Z,88.43
2022-12-20T00:40:39.563Z,88.58
2022-12-20T00:40:50.631Z,88.58
2022-12-20T00:41:01.694Z,88.58
2022-12-20T00:41:12.443Z,88.54
2022-12-20T00:41:23.516Z,88.58
2022-12-20T00:41:34.557Z,88.58
2022-12-20T00:41:45.315Z,88.54
2022-12-20T00:41:56.384Z,88.64
2022-12-20T00:42:07.383Z,88.68
2022-12-20T00:42:18.155Z,88.68
2022-12-20T00:42:29.236Z,88.68
2022-12-20T00:42:40.214Z,88.64
2022-12-20T00:42:51.002Z,88.64
2022-12-20T00:43:02.102Z,88.58
2022-12-20T00:43:13.085Z,88.58
2022-12-20T00:43:23.868Z,88.58
2022-12-20T00:43:34.972Z,88.54
2022-12-20T00:43:45.981Z,88.54
2022-12-20T00:43:56.767Z,88.54
2022-12-20T00:44:07.849Z,88.54
2022-12-20T00:44:18.836Z,88.54
2022-12-20T00:44:29.622Z,88.54
2022-12-20T00:44:40.719Z,88.54
2022-12-20T00:44:51.683Z,88.54
2022-12-20T00:45:02.495Z,88.54
2022-12-20T00:45:13.019Z,88.54
2022-12-20T00:45:24.008Z,88.54
2022-12-20T00:45:34.795Z,88.54
2022-12-20T00:45:45.934Z,88.54
2022-12-20T00:45:56.908Z,88.54
2022-12-20T00:46:07.672Z,88.54
2022-12-20T00:46:18.850Z,88.54
2022-12-20T00:46:29.374Z,88.54
2022-12-20T00:46:40.251Z,88.43
2022-12-20T00:46:50.869Z,88.43
2022-12-20T00:47:01.456Z,88.43
2022-12-20T00:47:12.302Z,88.43
2022-12-20T00:47:22.937Z,88.48
2022-12-20T00:47:33.403Z,88.33
2022-12-20T00:47:44.178Z,88.33
2022-12-20T00:47:55.239Z,88.33
2022-12-20T00:48:06.231Z,88.33
2022-12-20T00:48:17.001Z,88.33
2022-12-20T00:48:28.086Z,88.23
2022-12-20T00:48:39.070Z,88.23
2022-12-20T00:48:49.898Z,88.23
2022-12-20T00:49:00.438Z,88.23
2022-12-20T00:49:11.413Z,88.23
2022-12-20T00:49:22.222Z,88.23
2022-12-20T00:49:33.308Z,88.12
2022-12-20T00:49:44.295Z,88.12
2022-12-20T00:49:55.093Z,88.12
2022-12-20T00:50:06.201Z,88.12
2022-12-20T00:50:17.154Z,88.12
2022-12-20T00:50:27.963Z,88.23
2022-12-20T00:50:39.020Z,88.23
2022-12-20T00:50:50.016Z,88.23
2022-12-20T00:51:00.831Z,88.33
2022-12-20T00:51:11.355Z,88.33
2022-12-20T00:51:22.344Z,88.33
2022-12-20T00:51:33.142Z,88.33
2022-12-20T00:51:44.193Z,88.43
2022-12-20T00:51:55.200Z,88.43
2022-12-20T00:52:06.006Z,88.43
2022-12-20T00:52:17.078Z,88.54
2022-12-20T00:52:28.052Z,88.54
2022-12-20T00:52:38.898Z,88.54
2022-12-20T00:52:49.392Z,88.54
2022-12-20T00:53:00.411Z,88.64
2022-12-20T00:53:11.193Z,88.64
2022-12-20T00:53:26.393Z,88.64
2022-12-20T00:53:32.846Z,88.75
2022-12-20T00:53:43.676Z,88.75
2022-12-20T00:53:54.227Z,88.75
2022-12-20T00:54:05.217Z,88.75
2022-12-20T00:54:15.993Z,88.85
2022-12-20T00:54:27.067Z,88.85
2022-12-20T00:54:38.057Z,88.85
2022-12-20T00:54:48.855Z,88.85
2022-12-20T00:54:59.939Z,88.85
2022-12-20T00:55:10.904Z,88.96
2022-12-20T00:55:21.699Z,88.96
2022-12-20T00:55:32.807Z,89.06
2022-12-20T00:55:43.761Z,89.06
2022-12-20T00:55:54.546Z,89.06
2022-12-20T00:56:05.621Z,89.06
2022-12-20T00:56:16.616Z,89.06
2022-12-20T00:56:27.425Z,89.17
2022-12-20T00:56:38.483Z,89.17
2022-12-20T00:56:49.447Z,89.17
2022-12-20T00:57:00.259Z,89.17
2022-12-20T00:57:11.308Z,89.17
2022-12-20T00:57:22.294Z,89.17
2022-12-20T00:57:33.101Z,89.27
2022-12-20T00:57:44.153Z,89.27
2022-12-20T00:57:55.151Z,89.27
2022-12-20T00:58:05.956Z,89.27
2022-12-20T00:58:17.062Z,89.27
2022-12-20T00:58:27.988Z,89.37
2022-12-20T00:58:38.788Z,89.37
2022-12-20T00:58:49.883Z,89.37
2022-12-20T00:59:00.912Z,89.37
2022-12-20T00:59:11.659Z,89.48
2022-12-20T00:59:22.739Z,89.48
2022-12-20T00:59:33.720Z,89.48
2022-12-20T00:59:44.507Z,89.48
2022-12-20T00:59:55.582Z,89.48
2022-12-20T01:00:06.602Z,89.48
2022-12-20T01:00:17.365Z,89.48
2022-12-20T01:00:28.440Z,89.48
2022-12-20T01:00:39.497Z,89.48
2022-12-20T01:00:55.873Z,89.48
2022-12-20T01:01:02.411Z,89.58
2022-12-20T01:01:12.308Z,89.58
2022-12-20T01:01:23.160Z,89.58
2022-12-20T01:01:33.857Z,89.58
2022-12-20T01:01:44.525Z,89.58
2022-12-20T01:01:55.629Z,89.58
2022-12-20T01:02:06.440Z,89.58
2022-12-20T01:02:17.038Z,89.58
2022-12-20T01:02:28.204Z,89.58
2022-12-20T01:02:38.880Z,89.69
2022-12-20T01:02:49.516Z,89.69
2022-12-20T01:03:00.514Z,89.69
2022-12-20T01:03:11.224Z,89.69
2022-12-20T01:03:21.956Z,89.69
2022-12-20T01:03:32.875Z,89.69
2022-12-20T01:03:43.532Z,89.69
2022-12-20T01:03:54.621Z,89.69
2022-12-20T01:04:05.442Z,89.69
2022-12-20T01:04:15.982Z,89.69
2022-12-20T01:04:26.978Z,89.73
2022-12-20T01:04:37.798Z,89.69
2022-12-20T01:04:48.852Z,89.69
2022-12-20T01:04:59.837Z,89.69
2022-12-20T01:05:10.632Z,89.69
2022-12-20T01:05:21.720Z,89.69
2022-12-20T01:05:32.693Z,89.69
2022-12-20T01:05:43.498Z,89.69
2022-12-20T01:05:54.565Z,89.69
2022-12-20T01:06:05.610Z,89.69
2022-12-20T01:06:16.351Z,89.69
2022-12-20T01:06:27.442Z,89.69
2022-12-20T01:06:38.442Z,89.69
2022-12-20T01:06:49.275Z,89.79
2022-12-20T01:07:00.322Z,89.79
2022-12-20T01:07:11.307Z,89.79
2022-12-20T01:07:22.114Z,89.79
2022-12-20T01:07:33.187Z,89.79
2022-12-20T01:07:44.175Z,89.89
2022-12-20T01:07:55.042Z,89.89
2022-12-20T01:08:05.515Z,89.89
2022-12-20T01:08:16.520Z,89.89
2022-12-20T01:08:27.315Z,89.89
2022-12-20T01:08:38.405Z,89.89
2022-12-20T01:08:49.369Z,89.89
2022-12-20T01:09:00.172Z,89.89
2022-12-20T01:09:11.259Z,90.00
2022-12-20T01:09:22.243Z,89.89
2022-12-20T01:09:33.063Z,89.89
2022-12-20T01:09:43.581Z,89.89
2022-12-20T01:09:54.573Z,89.89
2022-12-20T01:10:05.366Z,89.89
2022-12-20T01:10:16.433Z,89.89
2022-12-20T01:10:27.497Z,89.89
2022-12-20T01:10:38.266Z,89.89
2022-12-20T01:10:49.356Z,89.89
2022-12-20T01:11:00.318Z,89.89
2022-12-20T01:11:11.111Z,89.89
2022-12-20T01:11:22.179Z,89.89
2022-12-20T01:11:33.185Z,89.89
2022-12-20T01:11:43.980Z,89.89
2022-12-20T01:11:54.495Z,89.89
2022-12-20T01:12:05.486Z,89.89
2022-12-20T01:12:16.274Z,89.89
2022-12-20T01:12:27.336Z,89.89
2022-12-20T01:12:38.332Z,89.89
2022-12-20T01:12:49.133Z,89.89
2022-12-20T01:13:00.193Z,89.79
2022-12-20T01:13:11.215Z,89.79
2022-12-20T01:13:21.991Z,89.79
2022-12-20T01:13:33.121Z,89.79
2022-12-20T01:13:44.154Z,89.89
2022-12-20T01:13:54.914Z,89.89
2022-12-20T01:14:06.018Z,89.89
2022-12-20T01:14:17.083Z,89.89
2022-12-20T01:14:27.809Z,90.00
2022-12-20T01:14:38.883Z,90.00
2022-12-20T01:14:49.881Z,90.00
2022-12-20T01:15:00.645Z,90.00
2022-12-20T01:15:11.733Z,90.00
2022-12-20T01:15:22.722Z,90.00
2022-12-20T01:15:33.505Z,90.00
2022-12-20T01:15:44.612Z,90.00
2022-12-20T01:15:55.662Z,90.00
2022-12-20T01:16:06.503Z,90.00
2022-12-20T01:16:17.620Z,90.00
2022-12-20T01:16:28.631Z,90.00
2022-12-20T01:16:39.512Z,90.00
2022-12-20T01:16:50.052Z,90.00
2022-12-20T01:17:01.117Z,90.00
2022-12-20T01:17:11.936Z,90.10
2022-12-20T01:17:23.008Z,90.10
2022-12-20T01:17:33.983Z,90.10
2022-12-20T01:17:44.768Z,90.10
2022-12-20T01:17:55.841Z,90.10
2022-12-20T01:18:06.847Z,90.20
2022-12-20T01:18:17.631Z,90.20
2022-12-20T01:18:28.690Z,90.20
2022-12-20T01:18:39.709Z,90.20
2022-12-20T01:18:50.500Z,90.20
2022-12-20T01:19:01.583Z,90.20
2022-12-20T01:19:12.609Z,90.31
2022-12-20T01:19:23.422Z,90.31
2022-12-20T01:19:33.912Z,90.31
2022-12-20T01:19:44.911Z,90.31
2022-12-20T01:19:55.699Z,90.31
2022-12-20T01:20:06.785Z,90.31
2022-12-20T01:20:17.789Z,90.31
2022-12-20T01:20:28.587Z,90.26
2022-12-20T01:20:39.649Z,90.31
2022-12-20T01:20:50.642Z,90.31
2022-12-20T01:21:01.439Z,90.31
2022-12-20T01:21:12.525Z,90.20
2022-12-20T01:21:23.507Z,90.20
2022-12-20T01:21:34.345Z,90.20
2022-12-20T01:21:45.088Z,90.31
2022-12-20T01:21:55.527Z,90.20
2022-12-20T01:22:06.303Z,90.16
2022-12-20T01:22:17.381Z,90.20
2022-12-20T01:22:28.430Z,90.20
2022-12-20T01:22:45.526Z,90.20
2022-12-20T01:22:51.245Z,90.20
2022-12-20T01:23:01.184Z,90.16
2022-12-20T01:23:11.951Z,90.31
2022-12-20T01:23:23.034Z,90.20
2022-12-20T01:23:34.021Z,90.31
2022-12-20T01:23:44.799Z,90.31
2022-12-20T01:23:55.903Z,90.31
2022-12-20T01:24:06.875Z,90.31
2022-12-20T01:24:17.656Z,90.26
2022-12-20T01:24:28.753Z,90.31
2022-12-20T01:24:39.753Z,90.31
2022-12-20T01:24:50.542Z,90.31
2022-12-20T01:25:01.606Z,90.31
2022-12-20T01:25:12.609Z,90.31
2022-12-20T01:25:23.393Z,90.31
2022-12-20T01:25:34.463Z,90.31
2022-12-20T01:25:45.482Z,90.26
2022-12-20T01:25:56.281Z,90.26
2022-12-20T01:26:07.358Z,90.26
2022-12-20T01:26:18.352Z,90.31
2022-12-20T01:26:29.195Z,90.26
2022-12-20T01:26:39.692Z,90.26
2022-12-20T01:26:50.669Z,90.26
2022-12-20T01:27:01.492Z,90.26
2022-12-20T01:27:12.631Z,90.37
2022-12-20T01:27:23.570Z,90.26
2022-12-20T01:27:34.428Z,90.37
2022-12-20T01:27:44.928Z,90.26
2022-12-20T01:27:55.933Z,90.37
2022-12-20T01:28:06.731Z,90.37
2022-12-20T01:28:17.858Z,90.26
2022-12-20T01:28:28.829Z,90.37
2022-12-20T01:28:39.615Z,90.37
2022-12-20T01:28:50.677Z,90.37
2022-12-20T01:29:01.729Z,90.37
2022-12-20T01:29:12.476Z,90.37
2022-12-20T01:29:23.578Z,90.37
2022-12-20T01:29:34.606Z,90.37
2022-12-20T01:29:45.421Z,90.37
2022-12-20T01:29:55.952Z,90.37
2022-12-20T01:30:06.935Z,90.37
2022-12-20T01:30:17.724Z,90.37
2022-12-20T01:30:28.798Z,90.26
2022-12-20T01:30:39.795Z,90.26
2022-12-20T01:30:50.574Z,90.26
2022-12-20T01:31:01.648Z,90.26
2022-12-20T01:31:12.695Z,90.26
2022-12-20T01:31:23.537Z,90.26
2022-12-20T01:31:34.170Z,90.26
2022-12-20T01:31:45.281Z,90.26
2022-12-20T01:31:56.195Z,90.26
2022-12-20T01:32:06.833Z,90.26
2022-12-20T01:32:17.409Z,90.26
2022-12-20T01:32:28.213Z,90.26
2022-12-20T01:32:39.341Z,90.26
2022-12-20T01:32:50.325Z,90.26
2022-12-20T01:33:01.116Z,90.16
2022-12-20T01:33:12.185Z,90.16
2022-12-20T01:33:23.199Z,90.16
2022-12-20T01:33:33.962Z,90.16
2022-12-20T01:33:45.033Z,90.16
2022-12-20T01:33:56.046Z,90.16
2022-12-20T01:34:06.821Z,90.16
2022-12-20T01:34:17.908Z,90.16
2022-12-20T01:34:28.882Z,90.16
2022-12-20T01:34:39.686Z,90.16
2022-12-20T01:34:50.286Z,90.16
2022-12-20T01:35:01.249Z,90.16
2022-12-20T01:35:12.058Z,90.16
2022-12-20T01:35:23.150Z,90.16
2022-12-20T01:35:34.117Z,90.16
2022-12-20T01:35:44.916Z,90.16
2022-12-20T01:35:55.988Z,90.16
2022-12-20T01:36:06.956Z,90.16
2022-12-20T01:36:17.795Z,90.16
2022-12-20T01:36:28.329Z,90.16
2022-12-20T01:36:39.326Z,90.16
2022-12-20T01:36:50.089Z,90.06
2022-12-20T01:37:01.159Z,90.06
2022-12-20T01:37:12.171Z,90.06
2022-12-20T01:37:22.951Z,90.06
2022-12-20T01:37:34.028Z,89.95
2022-12-20T01:37:45.002Z,89.95
2022-12-20T01:37:55.820Z,89.95
2022-12-20T01:38:06.351Z,89.95
2022-12-20T01:38:17.332Z,89.95
2022-12-20T01:38:28.139Z,89.95
2022-12-20T01:38:39.213Z,89.85
2022-12-20T01:38:50.206Z,89.85
2022-12-20T01:39:00.993Z,89.85
2022-12-20T01:39:12.069Z,89.85
2022-12-20T01:39:23.081Z,89.85
2022-12-20T01:39:33.849Z,89.85
2022-12-20T01:39:44.955Z,89.85
2022-12-20T01:39:55.931Z,89.85
2022-12-20T01:40:06.730Z,89.85
2022-12-20T01:40:17.796Z,89.85
2022-12-20T01:40:28.818Z,89.85
2022-12-20T01:40:39.605Z,89.85
2022-12-20T01:40:50.689Z,89.75
2022-12-20T01:41:01.675Z,89.75
2022-12-20T01:41:12.472Z,89.75
2022-12-20T01:41:23.539Z,89.75
2022-12-20T01:41:34.560Z,89.75
2022-12-20T01:41:45.363Z,89.75
2022-12-20T01:41:56.414Z,89.64
2022-12-20T01:42:07.403Z,89.64
2022-12-20T01:42:18.188Z,89.64
2022-12-20T01:42:29.265Z,89.60
2022-12-20T01:42:40.300Z,89.64
2022-12-20T01:42:51.084Z,89.64
2022-12-20T01:43:02.146Z,89.64
2022-12-20T01:43:13.139Z,89.64
2022-12-20T01:43:23.931Z,89.60
2022-12-20T01:43:34.997Z,89.64
2022-12-20T01:43:45.998Z,89.60
2022-12-20T01:43:56.776Z,89.64
2022-12-20T01:44:07.305Z,89.64
2022-12-20T01:44:18.302Z,89.54
2022-12-20T01:44:29.094Z,89.54
2022-12-20T01:44:40.179Z,89.54
2022-12-20T01:44:51.201Z,89.54
2022-12-20T01:45:02.014Z,89.54
2022-12-20T01:45:13.076Z,89.54
2022-12-20T01:45:24.057Z,89.54
2022-12-20T01:45:34.888Z,89.54
2022-12-20T01:45:45.962Z,89.54
2022-12-20T01:45:56.953Z,89.54
2022-12-20T01:46:07.799Z,89.54
2022-12-20T01:46:18.421Z,89.54
2022-12-20T01:46:29.488Z,89.54
2022-12-20T01:46:40.289Z,89.50
2022-12-20T01:46:51.359Z,89.54
2022-12-20T01:47:02.353Z,89.54
2022-12-20T01:47:13.193Z,89.54
2022-12-20T01:47:23.679Z,89.54
2022-12-20T01:47:34.687Z,89.54
2022-12-20T01:47:45.471Z,89.50
2022-12-20T01:47:56.536Z,89.54
2022-12-20T01:48:07.534Z,89.50
2022-12-20T01:48:18.347Z,89.54
2022-12-20T01:48:28.882Z,89.54
2022-12-20T01:48:39.864Z,89.54
2022-12-20T01:48:50.674Z,89.50
2022-12-20T01:49:01.736Z,89.54
2022-12-20T01:49:12.745Z,89.54
2022-12-20T01:49:23.535Z,89.54
2022-12-20T01:49:34.595Z,89.54
2022-12-20T01:49:45.602Z,89.54
2022-12-20T01:49:56.439Z,89.50
2022-12-20T01:50:06.945Z,89.50
2022-12-20T01:50:17.926Z,89.54
2022-12-20T01:50:28.709Z,89.50
2022-12-20T01:50:39.775Z,89.43
2022-12-20T01:50:50.769Z,89.39
2022-12-20T01:51:01.570Z,89.39
2022-12-20T01:51:12.617Z,89.39
2022-12-20T01:51:23.651Z,89.43
2022-12-20T01:51:34.405Z,89.39
2022-12-20T01:51:45.472Z,89.33
2022-12-20T01:51:56.523Z,89.29
2022-12-20T01:52:07.310Z,89.29
2022-12-20T01:52:18.440Z,89.23
2022-12-20T01:52:29.384Z,89.23
2022-12-20T01:52:40.188Z,89.18
2022-12-20T01:52:51.249Z,89.18
2022-12-20T01:53:02.257Z,89.08
2022-12-20T01:53:13.024Z,89.08
2022-12-20T01:53:24.110Z,89.08
2022-12-20T01:53:35.093Z,89.08
2022-12-20T01:53:45.879Z,89.08
2022-12-20T01:53:56.943Z,88.98
2022-12-20T01:54:07.951Z,88.98
2022-12-20T01:54:18.763Z,88.98
2022-12-20T01:54:29.812Z,88.92
2022-12-20T01:54:40.794Z,88.87
2022-12-20T01:54:51.581Z,88.87
2022-12-20T01:55:02.675Z,88.92
2022-12-20T01:55:13.671Z,88.87
2022-12-20T01:55:24.456Z,88.87
2022-12-20T01:55:35.536Z,88.92
2022-12-20T01:55:46.521Z,88.87
2022-12-20T01:55:57.303Z,88.87
2022-12-20T01:56:08.400Z,88.87
2022-12-20T01:56:19.385Z,88.87
2022-12-20T01:56:30.173Z,88.92
2022-12-20T01:56:41.281Z,88.92
2022-12-20T01:56:52.251Z,88.87
2022-12-20T01:57:03.038Z,88.87
2022-12-20T01:57:14.110Z,88.87
2022-12-20T01:57:25.126Z,88.87
2022-12-20T01:57:35.895Z,88.87
2022-12-20T01:57:46.965Z,88.98
2022-12-20T01:57:58.002Z,88.92
2022-12-20T01:58:08.841Z,88.87
2022-12-20T01:58:19.328Z,88.87
2022-12-20T01:58:30.308Z,88.87
2022-12-20T01:58:41.094Z,88.87
2022-12-20T01:58:52.161Z,88.87
2022-12-20T01:59:03.279Z,88.87
2022-12-20T01:59:14.053Z,88.87
2022-12-20T01:59:25.115Z,88.87
2022-12-20T01:59:36.100Z,88.87
2022-12-20T01:59:46.876Z,88.87
2022-12-20T01:59:57.955Z,88.87
2022-12-20T02:00:09.014Z,88.87
2022-12-20T02:00:19.782Z,88.87
2022-12-20T02:00:30.839Z,88.87
2022-12-20T02:00:41.908Z,88.87
2022-12-20T02:00:52.715Z,88.87
2022-12-20T02:01:03.311Z,88.87
2022-12-20T02:01:14.328Z,88.87
2022-12-20T02:01:25.327Z,88.87
2022-12-20T02:01:36.116Z,88.98
2022-12-20T02:01:46.705Z,88.98
2022-12-20T02:01:57.742Z,88.98
2022-12-20T02:02:08.610Z,88.98
2022-12-20T02:02:19.309Z,88.98
2022-12-20T02:02:30.387Z,88.98
2022-12-20T02:02:41.121Z,88.98
2022-12-20T02:02:51.763Z,88.98
2022-12-20T02:03:02.711Z,88.98
2022-12-20T02:03:13.496Z,88.98
2022-12-20T02:03:24.116Z,88.98
2022-12-20T02:03:34.989Z,88.98
2022-12-20T02:03:45.600Z,88.98
2022-12-20T02:03:56.565Z,88.98
2022-12-20T02:04:07.350Z,89.08
2022-12-20T02:04:18.407Z,89.08
2022-12-20T02:04:29.400Z,89.08
2022-12-20T02:04:40.177Z,89.08
2022-12-20T02:04:51.258Z,89.08
2022-12-20T02:05:02.239Z,89.08
2022-12-20T02:05:13.104Z,89.08
2022-12-20T02:05:23.660Z,89.08
2022-12-20T02:05:34.607Z,89.08
2022-12-20T02:05:45.415Z,89.08
2022-12-20T02:05:56.487Z,89.08
2022-12-20T02:06:07.462Z,89.08
2022-12-20T02:06:18.265Z,89.08
2022-12-20T02:06:29.370Z,89.08
2022-12-20T02:06:40.317Z,88.98
2022-12-20T02:06:51.122Z,89.08
2022-12-20T02:07:02.189Z,88.98
2022-12-20T02:07:13.167Z,88.98
2022-12-20T02:07:23.970Z,88.98
2022-12-20T02:07:35.032Z,88.98
2022-12-20T02:07:46.055Z,88.98
2022-12-20T02:07:56.839Z,88.98
2022-12-20T02:08:07.886Z,88.98
2022-12-20T02:08:18.904Z,88.98
2022-12-20T02:08:29.722Z,88.98
2022-12-20T02:08:40.767Z,88.98
2022-12-20T02:08:51.778Z,88.98
2022-12-20T02:09:02.622Z,88.98
2022-12-20T02:09:13.133Z,88.98
2022-12-20T02:09:24.133Z,88.98
2022-12-20T02:09:34.933Z,88.98
2022-12-20T02:09:46.032Z,88.87
2022-12-20T02:09:57.029Z,88.98
2022-12-20T02:10:07.828Z,88.98
2022-12-20T02:10:18.945Z,88.87
2022-12-20T02:10:29.929Z,88.98
2022-12-20T02:10:40.727Z,88.87
2022-12-20T02:10:51.796Z,88.98
2022-12-20T02:11:02.799Z,88.87
2022-12-20T02:11:13.587Z,88.87
2022-12-20T02:11:24.704Z,88.98
2022-12-20T02:11:35.687Z,88.87
2022-12-20T02:11:46.497Z,88.98
2022-12-20T02:11:57.574Z,88.87
2022-12-20T02:12:08.570Z,88.87
2022-12-20T02:12:19.355Z,88.87
2022-12-20T02:12:30.423Z,88.87
2022-12-20T02:12:41.451Z,88.87
2022-12-20T02:12:52.199Z,88.98
2022-12-20T02:13:03.285Z,88.98
2022-12-20T02:13:14.271Z,88.98
2022-12-20T02:13:25.064Z,88.98
2022-12-20T02:13:36.140Z,88.98
2022-12-20T02:13:47.150Z,88.98
2022-12-20T02:13:57.935Z,88.98
2022-12-20T02:14:08.998Z,88.98
2022-12-20T02:14:20.035Z,88.98
2022-12-20T02:14:30.782Z,88.98
2022-12-20T02:14:41.855Z,88.98
2022-12-20T02:14:52.872Z,88.98
2022-12-20T02:15:03.681Z,88.98
2022-12-20T02:15:14.715Z,88.98
2022-12-20T02:15:25.727Z,88.98
2022-12-20T02:15:36.514Z,88.98
2022-12-20T02:15:47.588Z,88.98
2022-12-20T02:15:58.616Z,88.98
2022-12-20T02:16:09.417Z,88.98
2022-12-20T02:16:20.490Z,88.98
2022-12-20T02:16:31.510Z,88.98
2022-12-20T02:16:42.428Z,88.98
2022-12-20T02:16:53.009Z,88.98
2022-12-20T02:17:04.018Z,88.98
2022-12-20T02:17:14.780Z,88.87
2022-12-20T02:17:25.859Z,88.98
2022-12-20T02:17:36.927Z,88.98
2022-12-20T02:17:47.692Z,88.98
2022-12-20T02:17:58.784Z,88.87
2022-12-20T02:18:09.766Z,88.87
2022-12-20T02:18:20.569Z,88.98
2022-12-20T02:18:31.629Z,88.98
2022-12-20T02:18:42.633Z,88.98
2022-12-20T02:18:53.422Z,88.98
2022-12-20T02:19:04.527Z,88.98
2022-12-20T02:19:15.481Z,88.87
2022-12-20T02:19:26.352Z,88.87
2022-12-20T02:19:36.857Z,88.87
2022-12-20T02:19:47.833Z,88.87
2022-12-20T02:19:58.660Z,88.87
2022-12-20T02:20:09.730Z,88.87
2022-12-20T02:20:20.783Z,88.87
2022-12-20T02:20:31.558Z,88.87